LOWS Airport Information

Runway Information
Runway 15 Length 9022 ft width 148 ft
Elevation 1411 ft Threshold 977 ft Heading 157
Runway 33 Length 9022 ft Width 148 ft
Elevation 1411 ft Threshold 787 ft Heading 337
Airport Frequencies
Type APP Name APP Frequency 123.725 MHZ
Type ATIS Name ATIS Frequency 125.725 MHZ
Type GND Name GND Frequency 121.75 MHZ
Type TWR Name TWR Frequency 118.1 MHZ
Airport Navaids
Type VOR-DME Name Salzburg Frequency 113800 KHZ
Type NDB Name Salzburg Frequency 382 KHZ
Type NDB Name Salzburg Frequency 410 KHZ
Type NDB Name Salzburg Frequency 356 KHZ
Airport Weather Information & NOTAM
ADDS - METARS form results

(0014 UTC 13 September 2022)
Data provider http://aviationweather.gov/metar/data/
 
METAR text: LOWS 122350Z AUTO 16006KT 9999 NCD 12/10 Q1016
Conditions at: LOWS (SALZBURG AIRPORT, AT) observed 2350 UTC 12 September 2022
Temperature: 12.0°C (54°F)
Dewpoint: 10.0°C (50°F) [RH = 88%]
Pressure (altimeter): 30.00 inches Hg (1016.0 mb)
Winds: from the SSE (160 degrees) at 7 MPH (6 knots; 3.1 m/s)
Visibility: 6 or more miles (10+ km)
Ceiling: at least 12,000 feet AGL
Clouds: sky clear below 12,000 feet AGL
Weather: no significant weather observed at this time

METAR text: LOWS 122320Z AUTO 18004KT 9999 NCD 12/10 Q1016
Conditions at: LOWS (SALZBURG AIRPORT, AT) observed 2320 UTC 12 September 2022
Temperature: 12.0°C (54°F)
Dewpoint: 10.0°C (50°F) [RH = 88%]
Pressure (altimeter): 30.00 inches Hg (1016.0 mb)
Winds: from the S (180 degrees) at 5 MPH (4 knots; 2.1 m/s)
Visibility: 6 or more miles (10+ km)
Ceiling: at least 12,000 feet AGL
Clouds: sky clear below 12,000 feet AGL
Weather: no significant weather observed at this time

Forecast for: LOWS (SALZBURG AIRPORT, AT)
Text: TAF LOWS 122315Z 1300/1324 15005KT CAVOK TX25/1313Z TN11/1302Z
Forecast period: 0000 to 0800 UTC 13 September 2022
Forecast type: FROM: standard forecast or significant change
Winds: from the SSE (150 degrees) at 6 MPH (5 knots; 2.6 m/s)
Visibility: 6 or more miles (10+ km)
Ceiling: unknown
Clouds: missing
Weather: no significant weather forecast for this period
Text: BECMG 1308/1310 34006KT 9999 FEW060
Forecast period: 0800 to 1600 UTC 13 September 2022
Forecast type: BECOMING: Conditions expected to become as follows by 1000 UTC 13 September 2022
Winds: from the NNW (340 degrees) at 7 MPH (6 knots; 3.1 m/s)
Visibility: 6 or more miles (10+ km)
Ceiling: at least 12,000 feet AGL
Clouds: few clouds at 6000 feet AGL
Weather: no significant weather forecast for this period
Text: BECMG 1316/1318 15005KT
Forecast period: 1600 UTC 13 September 2022 to 0000 UTC 14 September 2022
Forecast type: BECOMING: Conditions expected to become as follows by 1800 UTC 13 September 2022
Winds: from the SSE (150 degrees) at 6 MPH (5 knots; 2.6 m/s)
Visibility: 6 or more miles (10+ km)
Ceiling: at least 12,000 feet AGL
Clouds: few clouds at 6000 feet AGL
Weather: no significant weather forecast for this period